sensor_id;sensor_type;location;lat;lon;timestamp;temperature;humidity
49218;DHT22;35045;51.194;7.268;2022-12-24T00:00:59;9.40;99.90
49218;DHT22;35045;51.194;7.268;2022-12-24T00:03:26;9.40;99.90
49218;DHT22;35045;51.194;7.268;2022-12-24T00:05:52;9.40;99.90
49218;DHT22;35045;51.194;7.268;2022-12-24T00:08:18;9.40;99.90
49218;DHT22;35045;51.194;7.268;2022-12-24T00:10:50;9.40;99.90
49218;DHT22;35045;51.194;7.268;2022-12-24T00:13:16;9.40;99.90
49218;DHT22;35045;51.194;7.268;2022-12-24T00:15:42;9.40;99.90
49218;DHT22;35045;51.194;7.268;2022-12-24T00:18:09;9.40;99.90
49218;DHT22;35045;51.194;7.268;2022-12-24T00:20:35;9.40;99.90
49218;DHT22;35045;51.194;7.268;2022-12-24T00:23:01;9.40;99.90
49218;DHT22;35045;51.194;7.268;2022-12-24T00:25:27;9.40;99.90
49218;DHT22;35045;51.194;7.268;2022-12-24T00:27:53;9.40;99.90
49218;DHT22;35045;51.194;7.268;2022-12-24T00:30:19;9.30;99.90
49218;DHT22;35045;51.194;7.268;2022-12-24T00:32:45;9.30;99.90
49218;DHT22;35045;51.194;7.268;2022-12-24T00:35:12;9.40;99.90
49218;DHT22;35045;51.194;7.268;2022-12-24T00:37:38;9.30;99.90
49218;DHT22;35045;51.194;7.268;2022-12-24T00:40:04;9.30;99.90
49218;DHT22;35045;51.194;7.268;2022-12-24T00:42:31;9.30;99.90
49218;DHT22;35045;51.194;7.268;2022-12-24T00:44:57;9.20;99.90
49218;DHT22;35045;51.194;7.268;2022-12-24T00:47:23;9.20;99.90
49218;DHT22;35045;51.194;7.268;2022-12-24T00:49:49;9.20;99.90
49218;DHT22;35045;51.194;7.268;2022-12-24T00:52:15;9.20;99.90
49218;DHT22;35045;51.194;7.268;2022-12-24T00:54:42;9.20;99.90
49218;DHT22;35045;51.194;7.268;2022-12-24T00:57:08;9.20;99.90
49218;DHT22;35045;51.194;7.268;2022-12-24T00:59:34;9.10;99.90
49218;DHT22;35045;51.194;7.268;2022-12-24T01:02:00;9.20;99.90
49218;DHT22;35045;51.194;7.268;2022-12-24T01:04:26;9.10;99.90
49218;DHT22;35045;51.194;7.268;2022-12-24T01:07:12;9.10;99.90
49218;DHT22;35045;51.194;7.268;2022-12-24T01:09:38;9.20;99.90
49218;DHT22;35045;51.194;7.268;2022-12-24T01:12:04;9.10;99.90
49218;DHT22;35045;51.194;7.268;2022-12-24T01:14:31;9.10;99.90
49218;DHT22;35045;51.194;7.268;2022-12-24T01:16:57;9.10;99.90
49218;DHT22;35045;51.194;7.268;2022-12-24T01:19:23;9.10;99.90
49218;DHT22;35045;51.194;7.268;2022-12-24T01:21:49;9.10;99.90
49218;DHT22;35045;51.194;7.268;2022-12-24T01:24:15;9.10;99.90
49218;DHT22;35045;51.194;7.268;2022-12-24T01:26:42;9.10;99.90
49218;DHT22;35045;51.194;7.268;2022-12-24T01:29:08;9.00;99.90
49218;DHT22;35045;51.194;7.268;2022-12-24T01:31:34;9.10;99.90
49218;DHT22;35045;51.194;7.268;2022-12-24T01:34:00;9.10;99.90
49218;DHT22;35045;51.194;7.268;2022-12-24T01:36:27;9.10;99.90
49218;DHT22;35045;51.194;7.268;2022-12-24T01:38:53;9.10;99.90
49218;DHT22;35045;51.194;7.268;2022-12-24T01:41:21;9.00;99.90
49218;DHT22;35045;51.194;7.268;2022-12-24T01:47:16;8.90;99.90
49218;DHT22;35045;51.194;7.268;2022-12-24T01:49:48;8.90;99.90
49218;DHT22;35045;51.194;7.268;2022-12-24T01:52:23;8.80;99.90
49218;DHT22;35045;51.194;7.268;2022-12-24T01:55:02;8.80;99.90
49218;DHT22;35045;51.194;7.268;2022-12-24T01:57:37;8.80;99.90
49218;DHT22;35045;51.194;7.268;2022-12-24T02:00:08;8.80;99.90
49218;DHT22;35045;51.194;7.268;2022-12-24T02:02:37;8.80;99.90
49218;DHT22;35045;51.194;7.268;2022-12-24T02:05:16;8.70;99.90
49218;DHT22;35045;51.194;7.268;2022-12-24T02:07:43;8.80;99.90
49218;DHT22;35045;51.194;7.268;2022-12-24T02:10:12;8.80;99.90
49218;DHT22;35045;51.194;7.268;2022-12-24T02:12:40;8.80;99.90
49218;DHT22;35045;51.194;7.268;2022-12-24T02:15:09;8.80;99.90
49218;DHT22;35045;51.194;7.268;2022-12-24T02:17:46;8.80;99.90
49218;DHT22;35045;51.194;7.268;2022-12-24T02:20:46;8.80;99.90
49218;DHT22;35045;51.194;7.268;2022-12-24T02:23:42;8.80;99.90
49218;DHT22;35045;51.194;7.268;2022-12-24T02:30:11;8.80;99.90
49218;DHT22;35045;51.194;7.268;2022-12-24T02:32:55;8.80;99.90
49218;DHT22;35045;51.194;7.268;2022-12-24T02:35:50;8.80;99.90
49218;DHT22;35045;51.194;7.268;2022-12-24T02:38:38;8.80;99.90
49218;DHT22;35045;51.194;7.268;2022-12-24T02:41:16;8.80;99.90
49218;DHT22;35045;51.194;7.268;2022-12-24T02:43:44;8.80;99.90
49218;DHT22;35045;51.194;7.268;2022-12-24T02:46:17;8.90;99.90
49218;DHT22;35045;51.194;7.268;2022-12-24T02:48:47;8.80;99.90
49218;DHT22;35045;51.194;7.268;2022-12-24T02:51:14;8.80;99.90
49218;DHT22;35045;51.194;7.268;2022-12-24T02:53:41;8.80;99.90
49218;DHT22;35045;51.194;7.268;2022-12-24T03:00:01;8.90;99.90
49218;DHT22;35045;51.194;7.268;2022-12-24T03:05:36;8.90;99.90
49218;DHT22;35045;51.194;7.268;2022-12-24T03:11:08;8.90;99.90
49218;DHT22;35045;51.194;7.268;2022-12-24T03:13:36;8.90;99.90
49218;DHT22;35045;51.194;7.268;2022-12-24T03:16:05;8.90;99.90
49218;DHT22;35045;51.194;7.268;2022-12-24T03:18:31;8.90;99.90
49218;DHT22;35045;51.194;7.268;2022-12-24T03:21:12;8.90;99.90
49218;DHT22;35045;51.194;7.268;2022-12-24T03:23:41;8.90;99.90
49218;DHT22;35045;51.194;7.268;2022-12-24T03:26:09;8.90;99.90
49218;DHT22;35045;51.194;7.268;2022-12-24T03:28:38;8.90;99.90
49218;DHT22;35045;51.194;7.268;2022-12-24T03:31:05;8.90;99.90
49218;DHT22;35045;51.194;7.268;2022-12-24T03:33:32;8.80;99.90
49218;DHT22;35045;51.194;7.268;2022-12-24T03:35:58;8.90;99.90
49218;DHT22;35045;51.194;7.268;2022-12-24T03:38:24;8.90;99.90
49218;DHT22;35045;51.194;7.268;2022-12-24T03:40:51;8.80;99.90
49218;DHT22;35045;51.194;7.268;2022-12-24T03:43:17;8.90;99.90
49218;DHT22;35045;51.194;7.268;2022-12-24T03:45:43;8.90;99.90
49218;DHT22;35045;51.194;7.268;2022-12-24T03:48:09;8.90;99.90
49218;DHT22;35045;51.194;7.268;2022-12-24T03:50:35;8.90;99.90
49218;DHT22;35045;51.194;7.268;2022-12-24T03:53:02;8.90;99.90
49218;DHT22;35045;51.194;7.268;2022-12-24T03:55:28;8.90;99.90
49218;DHT22;35045;51.194;7.268;2022-12-24T03:57:54;8.90;99.90
49218;DHT22;35045;51.194;7.268;2022-12-24T04:00:20;8.80;99.90
49218;DHT22;35045;51.194;7.268;2022-12-24T04:02:47;8.80;99.90
49218;DHT22;35045;51.194;7.268;2022-12-24T04:05:15;8.90;99.90
49218;DHT22;35045;51.194;7.268;2022-12-24T04:07:42;8.90;99.90
49218;DHT22;35045;51.194;7.268;2022-12-24T04:10:09;8.80;99.90
49218;DHT22;35045;51.194;7.268;2022-12-24T04:12:36;8.80;99.90
49218;DHT22;35045;51.194;7.268;2022-12-24T04:15:04;8.90;99.90
49218;DHT22;35045;51.194;7.268;2022-12-24T04:17:31;8.80;99.90
49218;DHT22;35045;51.194;7.268;2022-12-24T04:19:57;8.90;99.90
49218;DHT22;35045;51.194;7.268;2022-12-24T04:22:23;8.90;99.90
49218;DHT22;35045;51.194;7.268;2022-12-24T04:24:49;8.90;99.90
49218;DHT22;35045;51.194;7.268;2022-12-24T04:27:16;8.90;99.90
49218;DHT22;35045;51.194;7.268;2022-12-24T04:29:42;8.90;99.90
49218;DHT22;35045;51.194;7.268;2022-12-24T04:32:08;8.90;99.90
49218;DHT22;35045;51.194;7.268;2022-12-24T04:34:36;8.90;99.90
49218;DHT22;35045;51.194;7.268;2022-12-24T04:37:02;8.90;99.90
49218;DHT22;35045;51.194;7.268;2022-12-24T04:39:29;8.90;99.90
49218;DHT22;35045;51.194;7.268;2022-12-24T04:41:55;8.90;99.90
49218;DHT22;35045;51.194;7.268;2022-12-24T04:44:21;8.90;99.90
49218;DHT22;35045;51.194;7.268;2022-12-24T04:46:47;8.90;99.90
49218;DHT22;35045;51.194;7.268;2022-12-24T04:49:14;8.90;99.90
49218;DHT22;35045;51.194;7.268;2022-12-24T04:51:40;8.90;99.90
49218;DHT22;35045;51.194;7.268;2022-12-24T04:54:06;8.90;99.90
49218;DHT22;35045;51.194;7.268;2022-12-24T04:56:32;8.90;99.90
49218;DHT22;35045;51.194;7.268;2022-12-24T04:58:59;8.90;99.90
49218;DHT22;35045;51.194;7.268;2022-12-24T05:01:28;8.80;99.90
49218;DHT22;35045;51.194;7.268;2022-12-24T05:03:55;8.80;99.90
49218;DHT22;35045;51.194;7.268;2022-12-24T05:06:23;8.80;99.90
49218;DHT22;35045;51.194;7.268;2022-12-24T05:08:53;8.80;99.90
49218;DHT22;35045;51.194;7.268;2022-12-24T05:11:19;8.80;99.90
49218;DHT22;35045;51.194;7.268;2022-12-24T05:13:45;8.80;99.90
49218;DHT22;35045;51.194;7.268;2022-12-24T05:16:14;8.70;99.90
49218;DHT22;35045;51.194;7.268;2022-12-24T05:18:40;8.80;99.90
49218;DHT22;35045;51.194;7.268;2022-12-24T05:21:08;8.70;99.90
49218;DHT22;35045;51.194;7.268;2022-12-24T05:23:35;8.70;99.90
49218;DHT22;35045;51.194;7.268;2022-12-24T05:26:32;8.70;99.90
49218;DHT22;35045;51.194;7.268;2022-12-24T05:29:00;8.70;99.90
49218;DHT22;35045;51.194;7.268;2022-12-24T05:31:29;8.70;99.90
49218;DHT22;35045;51.194;7.268;2022-12-24T05:33:55;8.80;99.90
49218;DHT22;35045;51.194;7.268;2022-12-24T05:36:22;8.80;99.90
49218;DHT22;35045;51.194;7.268;2022-12-24T05:38:49;8.80;99.90
49218;DHT22;35045;51.194;7.268;2022-12-24T05:41:15;8.80;99.90
49218;DHT22;35045;51.194;7.268;2022-12-24T05:43:42;8.70;99.90
49218;DHT22;35045;51.194;7.268;2022-12-24T05:46:10;8.70;99.90
49218;DHT22;35045;51.194;7.268;2022-12-24T05:48:37;8.70;99.90
49218;DHT22;35045;51.194;7.268;2022-12-24T05:51:07;8.70;99.90
49218;DHT22;35045;51.194;7.268;2022-12-24T05:53:34;8.70;99.90
49218;DHT22;35045;51.194;7.268;2022-12-24T05:58:29;8.80;99.90
49218;DHT22;35045;51.194;7.268;2022-12-24T06:00:56;8.80;99.90
49218;DHT22;35045;51.194;7.268;2022-12-24T06:03:23;8.70;99.90
49218;DHT22;35045;51.194;7.268;2022-12-24T06:06:00;8.70;99.90
49218;DHT22;35045;51.194;7.268;2022-12-24T06:08:28;8.80;99.90
49218;DHT22;35045;51.194;7.268;2022-12-24T06:10:59;8.80;99.90
49218;DHT22;35045;51.194;7.268;2022-12-24T06:13:26;8.80;99.90
49218;DHT22;35045;51.194;7.268;2022-12-24T06:15:57;8.80;99.90
49218;DHT22;35045;51.194;7.268;2022-12-24T06:18:23;8.90;99.90
49218;DHT22;35045;51.194;7.268;2022-12-24T06:20:51;8.80;99.90
49218;DHT22;35045;51.194;7.268;2022-12-24T06:23:17;8.80;99.90
49218;DHT22;35045;51.194;7.268;2022-12-24T06:25:43;8.90;99.90
49218;DHT22;35045;51.194;7.268;2022-12-24T06:28:09;8.80;99.90
49218;DHT22;35045;51.194;7.268;2022-12-24T06:30:36;8.80;99.90
49218;DHT22;35045;51.194;7.268;2022-12-24T06:33:02;8.80;99.90
49218;DHT22;35045;51.194;7.268;2022-12-24T06:35:30;8.80;99.90
49218;DHT22;35045;51.194;7.268;2022-12-24T06:37:56;8.90;99.90
49218;DHT22;35045;51.194;7.268;2022-12-24T06:40:22;8.90;99.90
49218;DHT22;35045;51.194;7.268;2022-12-24T06:42:49;8.90;99.90
49218;DHT22;35045;51.194;7.268;2022-12-24T06:45:15;8.90;99.90
49218;DHT22;35045;51.194;7.268;2022-12-24T06:47:41;8.90;99.90
49218;DHT22;35045;51.194;7.268;2022-12-24T06:50:07;8.90;99.90
49218;DHT22;35045;51.194;7.268;2022-12-24T06:52:34;8.80;99.90
49218;DHT22;35045;51.194;7.268;2022-12-24T06:55:00;8.80;99.90
49218;DHT22;35045;51.194;7.268;2022-12-24T06:57:26;8.90;99.90
49218;DHT22;35045;51.194;7.268;2022-12-24T06:59:52;8.90;99.90
49218;DHT22;35045;51.194;7.268;2022-12-24T07:02:19;8.90;99.90
49218;DHT22;35045;51.194;7.268;2022-12-24T07:04:45;8.90;99.90
49218;DHT22;35045;51.194;7.268;2022-12-24T07:07:11;8.90;99.90
49218;DHT22;35045;51.194;7.268;2022-12-24T07:09:37;8.80;99.90
49218;DHT22;35045;51.194;7.268;2022-12-24T07:12:03;8.90;99.90
49218;DHT22;35045;51.194;7.268;2022-12-24T07:14:30;8.90;99.90
49218;DHT22;35045;51.194;7.268;2022-12-24T07:16:56;8.90;99.90
49218;DHT22;35045;51.194;7.268;2022-12-24T07:19:24;8.90;99.90
49218;DHT22;35045;51.194;7.268;2022-12-24T07:21:50;8.90;99.90
49218;DHT22;35045;51.194;7.268;2022-12-24T07:24:16;8.90;99.90
49218;DHT22;35045;51.194;7.268;2022-12-24T07:26:42;8.90;99.90
49218;DHT22;35045;51.194;7.268;2022-12-24T07:29:08;8.90;99.90
49218;DHT22;35045;51.194;7.268;2022-12-24T07:31:34;8.90;99.90
49218;DHT22;35045;51.194;7.268;2022-12-24T07:34:01;8.90;99.90
49218;DHT22;35045;51.194;7.268;2022-12-24T07:36:27;9.00;99.90
49218;DHT22;35045;51.194;7.268;2022-12-24T07:38:53;9.00;99.90
49218;DHT22;35045;51.194;7.268;2022-12-24T07:41:19;9.00;99.90
49218;DHT22;35045;51.194;7.268;2022-12-24T07:43:46;9.00;99.90
49218;DHT22;35045;51.194;7.268;2022-12-24T07:46:12;9.00;99.90
49218;DHT22;35045;51.194;7.268;2022-12-24T07:48:38;9.00;99.90
49218;DHT22;35045;51.194;7.268;2022-12-24T07:51:04;9.00;99.90
49218;DHT22;35045;51.194;7.268;2022-12-24T07:53:31;9.00;99.90
49218;DHT22;35045;51.194;7.268;2022-12-24T07:55:57;9.00;99.90
49218;DHT22;35045;51.194;7.268;2022-12-24T07:58:24;9.00;99.90
49218;DHT22;35045;51.194;7.268;2022-12-24T08:00:57;9.00;99.90
49218;DHT22;35045;51.194;7.268;2022-12-24T08:03:24;9.00;99.90
49218;DHT22;35045;51.194;7.268;2022-12-24T08:05:51;9.00;99.90
49218;DHT22;35045;51.194;7.268;2022-12-24T08:08:18;9.00;99.90
49218;DHT22;35045;51.194;7.268;2022-12-24T08:10:45;9.00;99.90
49218;DHT22;35045;51.194;7.268;2022-12-24T08:13:12;9.00;99.90
49218;DHT22;35045;51.194;7.268;2022-12-24T08:15:38;9.00;99.90
49218;DHT22;35045;51.194;7.268;2022-12-24T08:18:05;9.00;99.90
49218;DHT22;35045;51.194;7.268;2022-12-24T08:20:31;9.00;99.90
49218;DHT22;35045;51.194;7.268;2022-12-24T08:22:57;9.00;99.90
49218;DHT22;35045;51.194;7.268;2022-12-24T08:25:23;9.00;99.90
49218;DHT22;35045;51.194;7.268;2022-12-24T08:27:49;9.00;99.90
49218;DHT22;35045;51.194;7.268;2022-12-24T08:30:15;9.00;99.90
49218;DHT22;35045;51.194;7.268;2022-12-24T08:32:45;9.00;99.90
49218;DHT22;35045;51.194;7.268;2022-12-24T08:35:11;9.10;99.90
49218;DHT22;35045;51.194;7.268;2022-12-24T08:37:38;9.10;99.90
49218;DHT22;35045;51.194;7.268;2022-12-24T08:40:04;9.10;99.90
49218;DHT22;35045;51.194;7.268;2022-12-24T08:42:31;9.10;99.90
49218;DHT22;35045;51.194;7.268;2022-12-24T08:44:57;9.10;99.90
49218;DHT22;35045;51.194;7.268;2022-12-24T08:47:23;9.10;99.90
49218;DHT22;35045;51.194;7.268;2022-12-24T08:49:49;9.10;99.90
49218;DHT22;35045;51.194;7.268;2022-12-24T08:52:15;9.10;99.90
49218;DHT22;35045;51.194;7.268;2022-12-24T08:54:41;9.10;99.90
49218;DHT22;35045;51.194;7.268;2022-12-24T08:57:07;9.10;99.90
49218;DHT22;35045;51.194;7.268;2022-12-24T08:59:34;9.20;99.90
49218;DHT22;35045;51.194;7.268;2022-12-24T09:02:00;9.20;99.90
49218;DHT22;35045;51.194;7.268;2022-12-24T09:04:26;9.20;99.90
49218;DHT22;35045;51.194;7.268;2022-12-24T09:06:52;9.10;99.90
49218;DHT22;35045;51.194;7.268;2022-12-24T09:09:18;9.20;99.90
49218;DHT22;35045;51.194;7.268;2022-12-24T09:11:45;9.20;99.90
49218;DHT22;35045;51.194;7.268;2022-12-24T09:14:11;9.20;99.90
49218;DHT22;35045;51.194;7.268;2022-12-24T09:16:37;9.20;99.90
49218;DHT22;35045;51.194;7.268;2022-12-24T09:19:03;9.20;99.90
49218;DHT22;35045;51.194;7.268;2022-12-24T09:21:29;9.20;99.90
49218;DHT22;35045;51.194;7.268;2022-12-24T09:23:56;9.20;99.90
49218;DHT22;35045;51.194;7.268;2022-12-24T09:26:24;9.20;99.90
49218;DHT22;35045;51.194;7.268;2022-12-24T09:28:52;9.20;99.90
49218;DHT22;35045;51.194;7.268;2022-12-24T09:31:18;9.20;99.90
49218;DHT22;35045;51.194;7.268;2022-12-24T09:33:46;9.20;99.90
49218;DHT22;35045;51.194;7.268;2022-12-24T09:36:13;9.30;99.90
49218;DHT22;35045;51.194;7.268;2022-12-24T09:38:39;9.30;99.90
49218;DHT22;35045;51.194;7.268;2022-12-24T09:41:37;9.20;99.90
49218;DHT22;35045;51.194;7.268;2022-12-24T09:47:07;9.20;99.90
49218;DHT22;35045;51.194;7.268;2022-12-24T09:49:39;9.10;99.90
49218;DHT22;35045;51.194;7.268;2022-12-24T09:52:11;9.10;99.90
49218;DHT22;35045;51.194;7.268;2022-12-24T09:54:44;9.20;99.90
49218;DHT22;35045;51.194;7.268;2022-12-24T09:57:27;9.20;99.90
49218;DHT22;35045;51.194;7.268;2022-12-24T09:59:55;9.20;99.90
49218;DHT22;35045;51.194;7.268;2022-12-24T10:02:21;9.30;99.90
49218;DHT22;35045;51.194;7.268;2022-12-24T10:04:48;9.30;99.90
49218;DHT22;35045;51.194;7.268;2022-12-24T10:08:01;9.40;99.90
49218;DHT22;35045;51.194;7.268;2022-12-24T10:10:12;9.40;99.90
49218;DHT22;35045;51.194;7.268;2022-12-24T10:18:51;9.50;99.90
49218;DHT22;35045;51.194;7.268;2022-12-24T10:21:33;9.50;99.90
49218;DHT22;35045;51.194;7.268;2022-12-24T10:24:20;9.50;99.90
49218;DHT22;35045;51.194;7.268;2022-12-24T10:27:01;9.50;99.90
49218;DHT22;35045;51.194;7.268;2022-12-24T10:29:32;9.50;99.90
49218;DHT22;35045;51.194;7.268;2022-12-24T10:34:45;9.40;99.90
49218;DHT22;35045;51.194;7.268;2022-12-24T10:37:18;9.30;99.90
49218;DHT22;35045;51.194;7.268;2022-12-24T10:39:46;9.40;99.90
49218;DHT22;35045;51.194;7.268;2022-12-24T10:42:12;9.40;99.90
49218;DHT22;35045;51.194;7.268;2022-12-24T10:44:39;9.40;99.90
49218;DHT22;35045;51.194;7.268;2022-12-24T10:47:07;9.30;99.90
49218;DHT22;35045;51.194;7.268;2022-12-24T10:49:44;9.40;99.90
49218;DHT22;35045;51.194;7.268;2022-12-24T10:52:14;9.40;99.90
49218;DHT22;35045;51.194;7.268;2022-12-24T10:55:10;9.40;99.90
49218;DHT22;35045;51.194;7.268;2022-12-24T10:57:37;9.40;99.90
49218;DHT22;35045;51.194;7.268;2022-12-24T11:00:05;9.40;99.90
49218;DHT22;35045;51.194;7.268;2022-12-24T11:02:38;9.40;99.90
49218;DHT22;35045;51.194;7.268;2022-12-24T11:05:25;9.40;99.90
49218;DHT22;35045;51.194;7.268;2022-12-24T11:07:59;9.40;99.90
49218;DHT22;35045;51.194;7.268;2022-12-24T11:10:26;9.50;99.90
49218;DHT22;35045;51.194;7.268;2022-12-24T11:12:52;9.50;99.90
49218;DHT22;35045;51.194;7.268;2022-12-24T11:15:32;9.40;99.90
49218;DHT22;35045;51.194;7.268;2022-12-24T11:18:04;9.50;99.90
49218;DHT22;35045;51.194;7.268;2022-12-24T11:20:33;9.50;99.90
49218;DHT22;35045;51.194;7.268;2022-12-24T11:23:00;9.50;99.90
49218;DHT22;35045;51.194;7.268;2022-12-24T11:25:29;9.60;99.90
49218;DHT22;35045;51.194;7.268;2022-12-24T11:28:27;9.60;99.90
49218;DHT22;35045;51.194;7.268;2022-12-24T11:30:57;9.60;99.90
49218;DHT22;35045;51.194;7.268;2022-12-24T11:33:24;9.60;99.90
49218;DHT22;35045;51.194;7.268;2022-12-24T11:35:54;9.60;99.90
49218;DHT22;35045;51.194;7.268;2022-12-24T11:38:23;9.60;99.90
49218;DHT22;35045;51.194;7.268;2022-12-24T11:41:05;9.70;99.90
49218;DHT22;35045;51.194;7.268;2022-12-24T11:43:38;9.80;99.90
49218;DHT22;35045;51.194;7.268;2022-12-24T11:46:38;9.80;99.90
49218;DHT22;35045;51.194;7.268;2022-12-24T11:51:38;9.90;99.90
49218;DHT22;35045;51.194;7.268;2022-12-24T11:54:25;9.90;99.90
49218;DHT22;35045;51.194;7.268;2022-12-24T11:56:54;9.90;99.90
49218;DHT22;35045;51.194;7.268;2022-12-24T11:59:35;9.90;99.90
49218;DHT22;35045;51.194;7.268;2022-12-24T12:02:25;9.90;99.90
49218;DHT22;35045;51.194;7.268;2022-12-24T12:07:55;9.90;99.90
49218;DHT22;35045;51.194;7.268;2022-12-24T12:10:25;9.90;99.90
49218;DHT22;35045;51.194;7.268;2022-12-24T12:15:26;10.10;99.90
49218;DHT22;35045;51.194;7.268;2022-12-24T12:20:37;10.20;99.90
49218;DHT22;35045;51.194;7.268;2022-12-24T12:23:26;10.20;99.90
49218;DHT22;35045;51.194;7.268;2022-12-24T12:28:50;10.30;99.90
49218;DHT22;35045;51.194;7.268;2022-12-24T12:31:36;10.40;99.90
49218;DHT22;35045;51.194;7.268;2022-12-24T12:34:19;10.30;99.90
49218;DHT22;35045;51.194;7.268;2022-12-24T12:37:09;10.30;99.90
49218;DHT22;35045;51.194;7.268;2022-12-24T12:39:39;10.40;99.90
49218;DHT22;35045;51.194;7.268;2022-12-24T12:42:24;10.30;99.90
49218;DHT22;35045;51.194;7.268;2022-12-24T12:45:01;10.20;99.90
49218;DHT22;35045;51.194;7.268;2022-12-24T12:56:20;10.30;99.90
49218;DHT22;35045;51.194;7.268;2022-12-24T12:58:26;10.20;99.90
49218;DHT22;35045;51.194;7.268;2022-12-24T13:00:58;10.30;99.90
49218;DHT22;35045;51.194;7.268;2022-12-24T13:17:52;10.30;99.90
49218;DHT22;35045;51.194;7.268;2022-12-24T13:20:27;10.30;99.90
49218;DHT22;35045;51.194;7.268;2022-12-24T13:23:21;10.30;99.90
49218;DHT22;35045;51.194;7.268;2022-12-24T13:25:50;10.30;99.90
49218;DHT22;35045;51.194;7.268;2022-12-24T13:30:53;10.40;99.90
49218;DHT22;35045;51.194;7.268;2022-12-24T13:46:52;10.50;99.90
49218;DHT22;35045;51.194;7.268;2022-12-24T13:49:27;10.40;99.90
49218;DHT22;35045;51.194;7.268;2022-12-24T13:54:41;10.20;99.90
49218;DHT22;35045;51.194;7.268;2022-12-24T14:05:43;10.10;99.90
49218;DHT22;35045;51.194;7.268;2022-12-24T14:16:12;10.00;99.90
49218;DHT22;35045;51.194;7.268;2022-12-24T14:18:41;9.90;99.90
49218;DHT22;35045;51.194;7.268;2022-12-24T14:21:22;10.00;99.90
49218;DHT22;35045;51.194;7.268;2022-12-24T14:24:01;9.90;99.90
49218;DHT22;35045;51.194;7.268;2022-12-24T14:26:31;9.80;99.90
49218;DHT22;35045;51.194;7.268;2022-12-24T14:29:07;9.80;99.90
49218;DHT22;35045;51.194;7.268;2022-12-24T14:31:55;9.70;99.90
49218;DHT22;35045;51.194;7.268;2022-12-24T14:34:21;9.70;99.90
49218;DHT22;35045;51.194;7.268;2022-12-24T14:36:49;9.60;99.90
49218;DHT22;35045;51.194;7.268;2022-12-24T14:39:30;9.60;99.90
49218;DHT22;35045;51.194;7.268;2022-12-24T14:47:44;9.50;99.90
49218;DHT22;35045;51.194;7.268;2022-12-24T14:55:51;9.60;99.90
49218;DHT22;35045;51.194;7.268;2022-12-24T14:58:34;9.60;99.90
49218;DHT22;35045;51.194;7.268;2022-12-24T15:01:17;9.60;99.90
49218;DHT22;35045;51.194;7.268;2022-12-24T15:03:43;9.70;99.90
49218;DHT22;35045;51.194;7.268;2022-12-24T15:06:11;9.60;99.90
49218;DHT22;35045;51.194;7.268;2022-12-24T15:08:45;9.50;99.90
49218;DHT22;35045;51.194;7.268;2022-12-24T15:11:16;9.50;99.90
49218;DHT22;35045;51.194;7.268;2022-12-24T15:13:49;9.50;99.90
49218;DHT22;35045;51.194;7.268;2022-12-24T15:16:39;9.50;99.90
49218;DHT22;35045;51.194;7.268;2022-12-24T15:19:16;9.40;99.90
49218;DHT22;35045;51.194;7.268;2022-12-24T15:21:45;9.40;99.90
49218;DHT22;35045;51.194;7.268;2022-12-24T15:24:31;9.50;99.90
49218;DHT22;35045;51.194;7.268;2022-12-24T15:26:59;9.50;99.90
49218;DHT22;35045;51.194;7.268;2022-12-24T15:29:29;9.40;99.90
49218;DHT22;35045;51.194;7.268;2022-12-24T15:31:58;9.50;99.90
49218;DHT22;35045;51.194;7.268;2022-12-24T15:34:36;9.40;99.90
49218;DHT22;35045;51.194;7.268;2022-12-24T15:39:55;9.40;99.90
49218;DHT22;35045;51.194;7.268;2022-12-24T15:42:23;9.40;99.90
49218;DHT22;35045;51.194;7.268;2022-12-24T15:45:02;9.50;99.90
49218;DHT22;35045;51.194;7.268;2022-12-24T15:47:34;9.40;99.90
49218;DHT22;35045;51.194;7.268;2022-12-24T15:50:18;9.40;99.90
49218;DHT22;35045;51.194;7.268;2022-12-24T15:52:45;9.40;99.90
49218;DHT22;35045;51.194;7.268;2022-12-24T15:57:51;9.30;99.90
49218;DHT22;35045;51.194;7.268;2022-12-24T16:00:25;9.30;99.90
49218;DHT22;35045;51.194;7.268;2022-12-24T16:03:18;9.30;99.90
49218;DHT22;35045;51.194;7.268;2022-12-24T16:05:45;9.30;99.90
49218;DHT22;35045;51.194;7.268;2022-12-24T16:10:44;9.20;99.90
49218;DHT22;35045;51.194;7.268;2022-12-24T16:13:22;9.20;99.90
49218;DHT22;35045;51.194;7.268;2022-12-24T16:15:56;9.10;99.90
49218;DHT22;35045;51.194;7.268;2022-12-24T16:18:26;9.10;99.90
49218;DHT22;35045;51.194;7.268;2022-12-24T16:20:54;9.00;99.90
49218;DHT22;35045;51.194;7.268;2022-12-24T16:23:23;9.00;99.90
49218;DHT22;35045;51.194;7.268;2022-12-24T16:25:50;8.90;99.90
49218;DHT22;35045;51.194;7.268;2022-12-24T16:28:18;8.90;99.90
49218;DHT22;35045;51.194;7.268;2022-12-24T16:30:47;8.90;99.90
49218;DHT22;35045;51.194;7.268;2022-12-24T16:33:16;8.90;99.90
49218;DHT22;35045;51.194;7.268;2022-12-24T16:35:43;8.90;99.90
49218;DHT22;35045;51.194;7.268;2022-12-24T16:38:10;8.90;99.90
49218;DHT22;35045;51.194;7.268;2022-12-24T16:40:36;8.90;99.90
49218;DHT22;35045;51.194;7.268;2022-12-24T16:43:02;8.90;99.90
49218;DHT22;35045;51.194;7.268;2022-12-24T16:45:47;8.90;99.90
49218;DHT22;35045;51.194;7.268;2022-12-24T16:48:24;9.00;99.90
49218;DHT22;35045;51.194;7.268;2022-12-24T16:50:51;8.90;99.90
49218;DHT22;35045;51.194;7.268;2022-12-24T16:53:19;8.90;99.90
49218;DHT22;35045;51.194;7.268;2022-12-24T16:55:46;9.00;99.90
49218;DHT22;35045;51.194;7.268;2022-12-24T16:58:14;8.90;99.90
49218;DHT22;35045;51.194;7.268;2022-12-24T17:00:41;8.90;99.90
49218;DHT22;35045;51.194;7.268;2022-12-24T17:03:08;8.90;99.90
49218;DHT22;35045;51.194;7.268;2022-12-24T17:05:38;8.90;99.90
49218;DHT22;35045;51.194;7.268;2022-12-24T17:08:05;8.90;99.90
49218;DHT22;35045;51.194;7.268;2022-12-24T17:10:31;8.90;99.90
49218;DHT22;35045;51.194;7.268;2022-12-24T17:12:58;8.90;99.90
49218;DHT22;35045;51.194;7.268;2022-12-24T17:15:24;8.80;99.90
49218;DHT22;35045;51.194;7.268;2022-12-24T17:17:50;8.80;99.90
49218;DHT22;35045;51.194;7.268;2022-12-24T17:20:16;8.80;99.90
49218;DHT22;35045;51.194;7.268;2022-12-24T17:22:47;8.70;99.90
49218;DHT22;35045;51.194;7.268;2022-12-24T17:25:13;8.80;99.90
49218;DHT22;35045;51.194;7.268;2022-12-24T17:27:39;8.80;99.90
49218;DHT22;35045;51.194;7.268;2022-12-24T17:30:08;8.80;99.90
49218;DHT22;35045;51.194;7.268;2022-12-24T17:32:34;8.80;99.90
49218;DHT22;35045;51.194;7.268;2022-12-24T17:35:02;8.80;99.90
49218;DHT22;35045;51.194;7.268;2022-12-24T17:37:29;8.80;99.90
49218;DHT22;35045;51.194;7.268;2022-12-24T17:39:55;8.90;99.90
49218;DHT22;35045;51.194;7.268;2022-12-24T17:42:21;8.90;99.90
49218;DHT22;35045;51.194;7.268;2022-12-24T17:44:47;9.00;99.90
49218;DHT22;35045;51.194;7.268;2022-12-24T17:47:13;9.00;99.90
49218;DHT22;35045;51.194;7.268;2022-12-24T17:49:39;9.00;99.90
49218;DHT22;35045;51.194;7.268;2022-12-24T17:52:05;9.00;99.90
49218;DHT22;35045;51.194;7.268;2022-12-24T17:54:31;9.00;99.90
49218;DHT22;35045;51.194;7.268;2022-12-24T17:56:58;9.00;99.90
49218;DHT22;35045;51.194;7.268;2022-12-24T17:59:24;9.00;99.90
49218;DHT22;35045;51.194;7.268;2022-12-24T18:01:50;9.00;99.90
49218;DHT22;35045;51.194;7.268;2022-12-24T18:04:16;9.00;99.90